Terminal Aerodrome Forecast
Issued by NWS

Home | Current Version | Previous Version | Text Only | Print | Product List | Glossary On
Versions: 1 2 3 4 5 6 7 8 9 10 11 12 13 14 15 16 17 18 19 20 21 22 23 24 25 26
000
FTUS42 KFFC 181126
TAFFTY
TAF
KFTY 181126Z 1812/1912 05004KT 6SM BR OVC005
      TEMPO 1812/1814 4SM -DZ BR
     FM181400 07005KT P6SM BKN008 OVC015
     FM181800 11006KT P6SM VCSH BKN025
     FM190300 12004KT P6SM -RA BKN015
     FM190600 13006KT 3SM -SHRA BR BKN006 OVC012=

USA.gov is the U.S. government's official web portal to all federal, state and local government web resources and services.